createdAt,value
2023-01-20T00:00:13.727Z,995.21
2023-01-20T00:01:13.671Z,995.23
2023-01-20T00:02:13.737Z,995.23
2023-01-20T00:03:13.672Z,995.27
2023-01-20T00:04:13.656Z,995.29
2023-01-20T00:05:13.792Z,995.29
2023-01-20T00:06:13.626Z,995.24
2023-01-20T00:07:13.607Z,995.32
2023-01-20T00:08:13.600Z,995.25
2023-01-20T00:09:13.621Z,995.26
2023-01-20T00:10:13.581Z,995.31
2023-01-20T00:11:13.559Z,995.30
2023-01-20T00:12:13.548Z,995.32
2023-01-20T00:13:13.577Z,995.33
2023-01-20T00:14:13.564Z,995.32
2023-01-20T00:15:13.856Z,995.34
2023-01-20T00:16:13.619Z,995.40
2023-01-20T00:17:13.507Z,995.42
2023-01-20T00:18:13.499Z,995.43
2023-01-20T00:19:13.494Z,995.41
2023-01-20T00:20:13.463Z,995.41
2023-01-20T00:21:13.463Z,995.40
2023-01-20T00:22:13.459Z,995.44
2023-01-20T00:23:13.457Z,995.48
2023-01-20T00:24:13.418Z,995.42
2023-01-20T00:25:13.791Z,995.45
2023-01-20T00:26:13.423Z,995.48
2023-01-20T00:27:13.405Z,995.46
2023-01-20T00:28:13.386Z,995.50
2023-01-20T00:29:13.380Z,995.48
2023-01-20T00:30:13.391Z,995.46
2023-01-20T00:31:13.455Z,995.47
2023-01-20T00:32:13.337Z,995.41
2023-01-20T00:33:13.328Z,995.47
2023-01-20T00:34:13.321Z,995.49
2023-01-20T00:35:13.537Z,995.50
2023-01-20T00:36:13.307Z,995.52
2023-01-20T00:37:13.310Z,995.52
2023-01-20T00:38:13.272Z,995.52
2023-01-20T00:39:13.261Z,995.56
2023-01-20T00:40:13.265Z,995.53
2023-01-20T00:41:13.296Z,995.56
2023-01-20T00:42:13.271Z,995.56
2023-01-20T00:43:13.217Z,995.56
2023-01-20T00:44:13.210Z,995.63
2023-01-20T00:45:13.500Z,995.58
2023-01-20T00:46:13.267Z,995.64
2023-01-20T00:47:13.258Z,995.64
2023-01-20T00:48:13.158Z,995.66
2023-01-20T00:49:13.179Z,995.63
2023-01-20T00:50:13.144Z,995.68
2023-01-20T00:51:13.130Z,995.66
2023-01-20T00:52:13.113Z,995.61
2023-01-20T00:53:13.127Z,995.66
2023-01-20T00:54:13.091Z,995.67
2023-01-20T00:55:13.341Z,995.65
2023-01-20T00:56:13.142Z,995.68
2023-01-20T00:57:13.110Z,995.63
2023-01-20T00:58:13.074Z,995.66
2023-01-20T00:59:13.048Z,995.68
2023-01-20T01:00:13.061Z,995.65
2023-01-20T01:01:13.240Z,995.65
2023-01-20T01:02:13.141Z,995.67
2023-01-20T01:03:13.002Z,995.69
2023-01-20T01:04:13.008Z,995.70
2023-01-20T01:05:13.238Z,995.71
2023-01-20T01:06:12.970Z,995.74
2023-01-20T01:07:12.985Z,995.70
2023-01-20T01:08:12.943Z,995.73
2023-01-20T01:09:13.007Z,995.73
2023-01-20T01:10:12.928Z,995.77
2023-01-20T01:11:12.931Z,995.81
2023-01-20T01:12:12.896Z,995.81
2023-01-20T01:13:12.892Z,995.86
2023-01-20T01:14:12.876Z,995.85
2023-01-20T01:15:13.147Z,995.85
2023-01-20T01:16:12.916Z,995.89
2023-01-20T01:17:12.851Z,995.88
2023-01-20T01:18:12.849Z,995.94
2023-01-20T01:19:12.863Z,995.96
2023-01-20T01:20:12.826Z,995.96
2023-01-20T01:21:12.807Z,995.96
2023-01-20T01:22:12.861Z,996.00
2023-01-20T01:23:12.783Z,996.00
2023-01-20T01:24:12.831Z,996.02
2023-01-20T01:25:13.115Z,995.99
2023-01-20T01:26:12.771Z,996.02
2023-01-20T01:27:12.768Z,996.06
2023-01-20T01:28:12.731Z,996.03
2023-01-20T01:29:12.739Z,996.10
2023-01-20T01:30:12.708Z,996.11
2023-01-20T01:31:12.761Z,996.10
2023-01-20T01:32:12.686Z,996.13
2023-01-20T01:33:12.690Z,996.11
2023-01-20T01:34:12.687Z,996.13
2023-01-20T01:35:13.104Z,996.11
2023-01-20T01:36:12.643Z,996.15
2023-01-20T01:37:12.633Z,996.17
2023-01-20T01:38:12.657Z,996.12
2023-01-20T01:39:12.620Z,996.14
2023-01-20T01:40:12.626Z,996.11
2023-01-20T01:41:12.594Z,996.14
2023-01-20T01:42:12.589Z,996.17
2023-01-20T01:43:12.595Z,996.17
2023-01-20T01:44:12.560Z,996.20
2023-01-20T01:45:13.280Z,996.18
2023-01-20T01:46:12.549Z,996.21
2023-01-20T01:47:12.577Z,996.19
2023-01-20T01:48:12.532Z,996.19
2023-01-20T01:49:12.511Z,996.19
2023-01-20T01:50:12.526Z,996.19
2023-01-20T01:51:12.561Z,996.21
2023-01-20T01:52:12.475Z,996.19
2023-01-20T01:53:12.498Z,996.19
2023-01-20T01:54:12.483Z,996.22
2023-01-20T01:55:12.903Z,996.23
2023-01-20T01:56:12.425Z,996.20
2023-01-20T01:57:12.427Z,996.19
2023-01-20T01:58:12.418Z,996.21
2023-01-20T01:59:12.427Z,996.19
2023-01-20T02:00:12.401Z,996.21
2023-01-20T02:01:12.512Z,996.19
2023-01-20T02:02:12.380Z,996.21
2023-01-20T02:03:12.352Z,996.24
2023-01-20T02:04:12.357Z,996.19
2023-01-20T02:05:12.341Z,996.25
2023-01-20T02:06:12.370Z,996.21
2023-01-20T02:07:12.318Z,996.23
2023-01-20T02:08:12.338Z,996.19
2023-01-20T02:09:12.300Z,996.21
2023-01-20T02:10:12.296Z,996.25
2023-01-20T02:11:12.270Z,996.26
2023-01-20T02:12:12.257Z,996.21
2023-01-20T02:13:12.251Z,996.27
2023-01-20T02:14:12.254Z,996.25
2023-01-20T02:15:12.692Z,996.28
2023-01-20T02:16:12.280Z,996.29
2023-01-20T02:17:12.219Z,996.32
2023-01-20T02:18:12.195Z,996.34
2023-01-20T02:19:12.191Z,996.35
2023-01-20T02:20:12.191Z,996.34
2023-01-20T02:21:12.180Z,996.33
2023-01-20T02:22:12.178Z,996.41
2023-01-20T02:23:12.160Z,996.37
2023-01-20T02:24:12.135Z,996.41
2023-01-20T02:25:12.460Z,996.38
2023-01-20T02:26:12.127Z,996.38
2023-01-20T02:27:12.138Z,996.42
2023-01-20T02:28:12.094Z,996.39
2023-01-20T02:29:12.081Z,996.45
2023-01-20T02:30:12.064Z,996.44
2023-01-20T02:31:12.141Z,996.43
2023-01-20T02:32:12.074Z,996.44
2023-01-20T02:33:12.046Z,996.45
2023-01-20T02:34:12.020Z,996.52
2023-01-20T02:35:12.315Z,996.50
2023-01-20T02:36:11.998Z,996.50
2023-01-20T02:37:12.017Z,996.54
2023-01-20T02:38:12.001Z,996.58
2023-01-20T02:39:11.982Z,996.50
2023-01-20T02:40:12.954Z,996.56
2023-01-20T02:41:11.960Z,996.53
2023-01-20T02:42:11.995Z,996.54
2023-01-20T02:43:11.932Z,996.53
2023-01-20T02:44:11.937Z,996.49
2023-01-20T02:45:11.917Z,996.51
2023-01-20T02:46:11.899Z,996.53
2023-01-20T02:47:11.905Z,996.52
2023-01-20T02:48:11.895Z,996.55
2023-01-20T02:49:11.869Z,996.52
2023-01-20T02:50:11.867Z,996.58
2023-01-20T02:51:11.866Z,996.57
2023-01-20T02:52:11.837Z,996.64
2023-01-20T02:53:11.823Z,996.62
2023-01-20T02:54:11.830Z,996.62
2023-01-20T02:55:11.899Z,996.66
2023-01-20T02:56:11.801Z,996.66
2023-01-20T02:57:11.781Z,996.66
2023-01-20T02:58:11.772Z,996.66
2023-01-20T02:59:11.764Z,996.68
2023-01-20T03:00:11.758Z,996.72
2023-01-20T03:01:11.856Z,996.71
2023-01-20T03:02:11.771Z,996.70
2023-01-20T03:03:11.714Z,996.68
2023-01-20T03:04:11.809Z,996.72
2023-01-20T03:05:11.859Z,996.71
2023-01-20T03:06:11.693Z,996.78
2023-01-20T03:07:11.697Z,996.69
2023-01-20T03:08:11.676Z,996.72
2023-01-20T03:09:11.681Z,996.73
2023-01-20T03:10:11.661Z,996.77
2023-01-20T03:11:11.633Z,996.77
2023-01-20T03:12:11.632Z,996.78
2023-01-20T03:13:11.612Z,996.80
2023-01-20T03:14:11.595Z,996.81
2023-01-20T03:15:11.618Z,996.79
2023-01-20T03:16:11.652Z,996.76
2023-01-20T03:17:11.573Z,996.80
2023-01-20T03:18:11.578Z,996.80
2023-01-20T03:19:11.595Z,996.82
2023-01-20T03:20:11.534Z,996.84
2023-01-20T03:21:11.547Z,996.87
2023-01-20T03:22:11.524Z,996.83
2023-01-20T03:23:11.551Z,996.85
2023-01-20T03:24:11.518Z,996.86
2023-01-20T03:25:11.531Z,996.84
2023-01-20T03:26:11.495Z,996.84
2023-01-20T03:27:11.468Z,996.84
2023-01-20T03:28:11.451Z,996.83
2023-01-20T03:29:11.590Z,996.83
2023-01-20T03:30:11.444Z,996.91
2023-01-20T03:31:11.540Z,996.91
2023-01-20T03:32:11.424Z,996.88
2023-01-20T03:33:11.405Z,996.88
2023-01-20T03:34:11.400Z,996.83
2023-01-20T03:35:11.379Z,996.93
2023-01-20T03:36:11.366Z,996.93
2023-01-20T03:37:11.389Z,996.93
2023-01-20T03:38:11.340Z,996.94
2023-01-20T03:39:11.333Z,996.92
2023-01-20T03:40:11.344Z,996.92
2023-01-20T03:41:11.309Z,996.95
2023-01-20T03:42:11.319Z,996.95
2023-01-20T03:43:11.296Z,996.94
2023-01-20T03:44:11.309Z,997.04
2023-01-20T03:45:11.274Z,997.00
2023-01-20T03:46:11.324Z,997.06
2023-01-20T03:47:11.248Z,997.05
2023-01-20T03:48:11.236Z,997.09
2023-01-20T03:49:11.228Z,997.05
2023-01-20T03:50:11.242Z,997.05
2023-01-20T03:51:11.201Z,997.05
2023-01-20T03:52:11.223Z,997.18
2023-01-20T03:53:11.195Z,997.16
2023-01-20T03:54:11.181Z,997.13
2023-01-20T03:55:11.198Z,997.06
2023-01-20T03:56:11.185Z,997.11
2023-01-20T03:57:11.178Z,997.13
2023-01-20T03:58:11.148Z,997.11
2023-01-20T03:59:11.130Z,997.21
2023-01-20T04:00:11.126Z,997.19
2023-01-20T04:01:18.040Z,997.23
2023-01-20T04:02:12.296Z,997.21
2023-01-20T04:03:11.117Z,997.20
2023-01-20T04:04:11.078Z,997.14
2023-01-20T04:05:11.089Z,997.18
2023-01-20T04:06:11.054Z,997.20
2023-01-20T04:07:11.043Z,997.14
2023-01-20T04:08:11.044Z,997.16
2023-01-20T04:09:11.011Z,997.20
2023-01-20T04:10:11.008Z,997.16
2023-01-20T04:11:11.020Z,997.14
2023-01-20T04:12:10.989Z,997.13
2023-01-20T04:13:10.995Z,997.23
2023-01-20T04:14:10.976Z,997.16
2023-01-20T04:15:10.960Z,997.22
2023-01-20T04:16:11.000Z,997.19
2023-01-20T04:17:10.969Z,997.25
2023-01-20T04:18:10.923Z,997.25
2023-01-20T04:19:10.948Z,997.20
2023-01-20T04:20:10.925Z,997.23
2023-01-20T04:21:10.891Z,997.25
2023-01-20T04:22:10.912Z,997.27
2023-01-20T04:23:10.870Z,997.29
2023-01-20T04:24:10.856Z,997.29
2023-01-20T04:25:10.889Z,997.25
2023-01-20T04:26:10.855Z,997.28
2023-01-20T04:27:10.843Z,997.29
2023-01-20T04:28:10.815Z,997.22
2023-01-20T04:29:13.103Z,997.25
2023-01-20T04:30:10.810Z,997.26
2023-01-20T04:31:24.832Z,997.26
2023-01-20T04:32:11.795Z,997.30
2023-01-20T04:33:10.758Z,997.25
2023-01-20T04:34:10.768Z,997.27
2023-01-20T04:35:10.733Z,997.29
2023-01-20T04:36:10.739Z,997.35
2023-01-20T04:37:10.734Z,997.34
2023-01-20T04:38:10.705Z,997.36
2023-01-20T04:39:10.755Z,997.36
2023-01-20T04:40:10.691Z,997.39
2023-01-20T04:41:10.687Z,997.38
2023-01-20T04:42:10.664Z,997.39
2023-01-20T04:43:10.654Z,997.36
2023-01-20T04:44:10.644Z,997.40
2023-01-20T04:45:10.663Z,997.41
2023-01-20T04:46:10.730Z,997.43
2023-01-20T04:47:10.611Z,997.42
2023-01-20T04:48:10.611Z,997.43
2023-01-20T04:49:10.613Z,997.41
2023-01-20T04:50:10.581Z,997.41
2023-01-20T04:51:10.589Z,997.40
2023-01-20T04:52:10.562Z,997.42
2023-01-20T04:53:10.571Z,997.44
2023-01-20T04:54:10.537Z,997.47
2023-01-20T04:55:10.540Z,997.50
2023-01-20T04:56:10.537Z,997.46
2023-01-20T04:57:10.505Z,997.47
2023-01-20T04:58:10.555Z,997.51
2023-01-20T04:59:10.479Z,997.45
2023-01-20T05:00:10.475Z,997.47
2023-01-20T05:01:10.628Z,997.46
2023-01-20T05:02:10.545Z,997.48
2023-01-20T05:03:10.521Z,997.52
2023-01-20T05:04:10.484Z,997.51
2023-01-20T05:05:10.442Z,997.55
2023-01-20T05:06:10.415Z,997.52
2023-01-20T05:07:10.404Z,997.53
2023-01-20T05:08:10.394Z,997.52
2023-01-20T05:09:10.378Z,997.62
2023-01-20T05:10:12.346Z,997.59
2023-01-20T05:11:10.370Z,997.60
2023-01-20T05:12:10.381Z,997.59
2023-01-20T05:13:10.345Z,997.60
2023-01-20T05:14:10.333Z,997.57
2023-01-20T05:15:10.326Z,997.59
2023-01-20T05:16:10.364Z,997.59
2023-01-20T05:17:10.313Z,997.57
2023-01-20T05:18:10.299Z,997.56
2023-01-20T05:19:10.292Z,997.57
2023-01-20T05:20:10.327Z,997.60
2023-01-20T05:21:10.271Z,997.58
2023-01-20T05:22:10.279Z,997.62
2023-01-20T05:23:10.242Z,997.62
2023-01-20T05:24:10.259Z,997.66
2023-01-20T05:25:10.212Z,997.67
2023-01-20T05:26:10.198Z,997.68
2023-01-20T05:27:10.185Z,997.67
2023-01-20T05:28:10.178Z,997.66
2023-01-20T05:29:10.205Z,997.64
2023-01-20T05:30:10.158Z,997.68
2023-01-20T05:31:10.267Z,997.69
2023-01-20T05:32:10.137Z,997.70
2023-01-20T05:33:10.122Z,997.68
2023-01-20T05:34:10.143Z,997.70
2023-01-20T05:35:10.106Z,997.71
2023-01-20T05:36:10.092Z,997.69
2023-01-20T05:37:10.084Z,997.71
2023-01-20T05:38:10.080Z,997.72
2023-01-20T05:39:10.069Z,997.74
2023-01-20T05:40:10.080Z,997.78
2023-01-20T05:41:10.052Z,997.75
2023-01-20T05:42:10.037Z,997.78
2023-01-20T05:43:12.783Z,997.82
2023-01-20T05:44:10.009Z,997.77
2023-01-20T05:45:10.059Z,997.78
2023-01-20T05:46:10.115Z,997.80
2023-01-20T05:47:09.990Z,997.79
2023-01-20T05:48:10.002Z,997.83
2023-01-20T05:49:10.011Z,997.87
2023-01-20T05:50:09.957Z,997.88
2023-01-20T05:51:09.936Z,997.89
2023-01-20T05:52:09.953Z,997.88
2023-01-20T05:53:09.911Z,997.91
2023-01-20T05:54:09.923Z,997.93
2023-01-20T05:55:10.041Z,997.90
2023-01-20T05:56:09.904Z,997.94
2023-01-20T05:57:09.872Z,997.95
2023-01-20T05:58:09.877Z,997.95
2023-01-20T05:59:09.874Z,997.97
2023-01-20T06:00:09.863Z,997.89
2023-01-20T06:01:09.961Z,997.90
2023-01-20T06:02:09.832Z,997.93
2023-01-20T06:03:09.821Z,997.92
2023-01-20T06:04:09.845Z,997.93
2023-01-20T06:05:09.868Z,997.91
2023-01-20T06:06:09.812Z,997.95
2023-01-20T06:07:10.120Z,997.89
2023-01-20T06:08:09.757Z,997.90
2023-01-20T06:09:09.775Z,997.86
2023-01-20T06:10:10.109Z,997.89
2023-01-20T06:11:09.742Z,997.89
2023-01-20T06:12:09.724Z,997.88
2023-01-20T06:13:09.764Z,997.93
2023-01-20T06:14:09.718Z,997.90
2023-01-20T06:15:09.725Z,997.93
2023-01-20T06:16:09.977Z,998.00
2023-01-20T06:17:09.701Z,998.00
2023-01-20T06:18:09.706Z,997.98
2023-01-20T06:19:09.708Z,997.98
2023-01-20T06:20:09.751Z,997.95
2023-01-20T06:21:11.251Z,998.01
2023-01-20T06:22:09.825Z,998.05
2023-01-20T06:23:10.587Z,998.03
2023-01-20T06:24:09.878Z,998.06
2023-01-20T06:25:09.973Z,998.06
2023-01-20T06:26:09.589Z,998.12
2023-01-20T06:27:09.736Z,998.09
2023-01-20T06:28:09.559Z,998.09
2023-01-20T06:29:10.201Z,998.14
2023-01-20T06:30:09.673Z,998.11
2023-01-20T06:31:09.673Z,998.12
2023-01-20T06:32:09.686Z,998.15
2023-01-20T06:33:09.540Z,998.15
2023-01-20T06:34:09.621Z,998.14
2023-01-20T06:35:11.303Z,998.13
2023-01-20T06:36:09.514Z,998.11
2023-01-20T06:37:09.541Z,998.09
2023-01-20T06:38:09.501Z,998.12
2023-01-20T06:39:09.434Z,998.09
2023-01-20T06:40:09.464Z,998.14
2023-01-20T06:41:09.477Z,998.12
2023-01-20T06:42:11.039Z,998.13
2023-01-20T06:43:10.404Z,998.16
2023-01-20T06:44:10.499Z,998.16
2023-01-20T06:45:09.686Z,998.17
2023-01-20T06:46:10.323Z,998.21
2023-01-20T06:47:09.534Z,998.23
2023-01-20T06:48:09.805Z,998.21
2023-01-20T06:49:09.570Z,998.29
2023-01-20T06:50:09.655Z,998.29
2023-01-20T06:51:09.635Z,998.33
2023-01-20T06:52:09.655Z,998.33
2023-01-20T06:53:09.610Z,998.36
2023-01-20T06:54:09.354Z,998.35
2023-01-20T06:55:09.582Z,998.36
2023-01-20T06:56:09.476Z,998.40
2023-01-20T06:57:09.846Z,998.42
2023-01-20T06:58:09.596Z,998.43
2023-01-20T06:59:12.107Z,998.48
2023-01-20T07:00:09.447Z,998.46
2023-01-20T07:01:10.331Z,998.47
2023-01-20T07:02:11.200Z,998.49
2023-01-20T07:03:12.490Z,998.50
2023-01-20T07:04:09.806Z,998.52
2023-01-20T07:05:09.178Z,998.50
2023-01-20T07:06:09.255Z,998.52
2023-01-20T07:07:09.315Z,998.55
2023-01-20T07:08:09.757Z,998.54
2023-01-20T07:09:10.367Z,998.57
2023-01-20T07:10:09.178Z,998.52
2023-01-20T07:11:09.109Z,998.54
2023-01-20T07:12:09.223Z,998.51
2023-01-20T07:13:09.064Z,998.56
2023-01-20T07:14:09.071Z,998.56
2023-01-20T07:15:09.043Z,998.56
2023-01-20T07:16:11.457Z,998.53
2023-01-20T07:17:09.008Z,998.58
2023-01-20T07:18:09.049Z,998.57
2023-01-20T07:19:08.993Z,998.56
2023-01-20T07:20:08.987Z,998.58
2023-01-20T07:21:08.990Z,998.62
2023-01-20T07:22:08.985Z,998.61
2023-01-20T07:23:08.955Z,998.60
2023-01-20T07:24:08.979Z,998.63
2023-01-20T07:25:08.955Z,998.63
2023-01-20T07:26:08.957Z,998.65
2023-01-20T07:27:08.921Z,998.65
2023-01-20T07:28:08.957Z,998.67
2023-01-20T07:29:09.531Z,998.69
2023-01-20T07:30:08.878Z,998.70
2023-01-20T07:31:08.868Z,998.78
2023-01-20T07:32:08.881Z,998.81
2023-01-20T07:33:08.888Z,998.71
2023-01-20T07:34:08.834Z,998.75
2023-01-20T07:35:08.824Z,998.77
2023-01-20T07:36:08.820Z,998.77
2023-01-20T07:37:08.831Z,998.78
2023-01-20T07:38:08.812Z,998.80
2023-01-20T07:39:08.777Z,998.78
2023-01-20T07:40:08.767Z,998.85
2023-01-20T07:41:08.777Z,998.84
2023-01-20T07:42:08.763Z,998.85
2023-01-20T07:43:08.747Z,998.88
2023-01-20T07:44:08.737Z,998.92
2023-01-20T07:45:08.729Z,998.97
2023-01-20T07:46:08.760Z,998.97
2023-01-20T07:47:08.720Z,998.95
2023-01-20T07:48:08.689Z,998.96
2023-01-20T07:49:10.706Z,998.99
2023-01-20T07:50:08.672Z,999.02
2023-01-20T07:51:08.657Z,998.96
2023-01-20T07:52:08.648Z,998.92
2023-01-20T07:53:08.638Z,998.95
2023-01-20T07:54:08.622Z,998.96
2023-01-20T07:55:08.620Z,998.98
2023-01-20T07:56:08.606Z,998.99
2023-01-20T07:57:08.595Z,999.02
2023-01-20T07:58:08.591Z,999.01
2023-01-20T07:59:08.599Z,999.03
2023-01-20T08:00:08.586Z,999.04
2023-01-20T08:01:08.746Z,999.06
2023-01-20T08:02:08.582Z,999.06
2023-01-20T08:03:08.536Z,999.12
2023-01-20T08:04:08.510Z,999.17
2023-01-20T08:05:08.565Z,999.13
2023-01-20T08:06:08.517Z,999.16
2023-01-20T08:07:08.560Z,999.18
2023-01-20T08:08:08.501Z,999.18
2023-01-20T08:09:08.487Z,999.18
2023-01-20T08:10:08.471Z,999.18
2023-01-20T08:11:08.453Z,999.18
2023-01-20T08:12:08.459Z,999.17
2023-01-20T08:13:08.417Z,999.15
2023-01-20T08:14:08.424Z,999.16
2023-01-20T08:15:08.402Z,999.21
2023-01-20T08:16:08.386Z,999.19
2023-01-20T08:17:08.404Z,999.21
2023-01-20T08:18:08.382Z,999.24
2023-01-20T08:19:08.366Z,999.28
2023-01-20T08:20:08.371Z,999.30
2023-01-20T08:21:08.582Z,999.36
2023-01-20T08:22:08.330Z,999.35
2023-01-20T08:23:08.328Z,999.34
2023-01-20T08:24:08.351Z,999.36
2023-01-20T08:25:08.364Z,999.35
2023-01-20T08:26:08.302Z,999.39
2023-01-20T08:27:08.285Z,999.39
2023-01-20T08:28:08.282Z,999.40
2023-01-20T08:29:08.282Z,999.37
2023-01-20T08:30:08.296Z,999.46
2023-01-20T08:31:08.453Z,999.44
2023-01-20T08:32:08.223Z,999.41
2023-01-20T08:33:08.223Z,999.40
2023-01-20T08:34:08.204Z,999.38
2023-01-20T08:35:08.197Z,999.43
2023-01-20T08:36:08.196Z,999.42
2023-01-20T08:37:08.475Z,999.46
2023-01-20T08:38:08.175Z,999.50
2023-01-20T08:39:08.152Z,999.48
2023-01-20T08:40:08.174Z,999.50
2023-01-20T08:41:08.134Z,999.49
2023-01-20T08:42:08.140Z,999.51
2023-01-20T08:43:08.159Z,999.51
2023-01-20T08:44:08.150Z,999.46
2023-01-20T08:45:08.085Z,999.48
2023-01-20T08:46:08.117Z,999.47
2023-01-20T08:47:08.063Z,999.52
2023-01-20T08:48:08.068Z,999.48
2023-01-20T08:49:08.056Z,999.50
2023-01-20T08:50:08.072Z,999.56
2023-01-20T08:51:08.080Z,999.58
2023-01-20T08:52:08.031Z,999.61
2023-01-20T08:53:08.050Z,999.60
2023-01-20T08:54:08.072Z,999.60
2023-01-20T08:55:08.163Z,999.61
2023-01-20T08:56:08.054Z,999.62
2023-01-20T08:57:08.078Z,999.56
2023-01-20T08:58:08.400Z,999.54
2023-01-20T08:59:08.275Z,999.59
2023-01-20T09:00:09.089Z,999.60
2023-01-20T09:01:08.205Z,999.48
2023-01-20T09:02:31.187Z,999.49
2023-01-20T09:03:08.128Z,999.51
2023-01-20T09:04:07.991Z,999.51
2023-01-20T09:05:08.124Z,999.51
2023-01-20T09:07:39.354Z,999.55
2023-01-20T09:08:39.518Z,999.56
2023-01-20T09:09:39.332Z,999.52
2023-01-20T09:10:39.341Z,999.53
2023-01-20T09:11:39.471Z,999.54
2023-01-20T09:12:39.295Z,999.56
2023-01-20T09:13:39.353Z,999.58
2023-01-20T09:14:39.559Z,999.58
2023-01-20T09:15:41.741Z,999.57
2023-01-20T09:16:39.489Z,999.57
2023-01-20T09:17:39.298Z,999.58
2023-01-20T09:18:44.054Z,999.54
2023-01-20T09:19:40.421Z,999.59
2023-01-20T09:20:40.157Z,999.56
2023-01-20T09:21:40.341Z,999.62
2023-01-20T09:22:39.684Z,999.63
2023-01-20T09:23:39.754Z,999.64
2023-01-20T09:24:39.775Z,999.63
2023-01-20T09:25:39.289Z,999.68
2023-01-20T09:26:39.472Z,999.66
2023-01-20T09:27:39.139Z,999.64
2023-01-20T09:28:39.291Z,999.63
2023-01-20T09:29:40.267Z,999.65
2023-01-20T09:30:41.267Z,999.67
2023-01-20T09:31:39.796Z,999.59
2023-01-20T09:32:39.591Z,999.64
2023-01-20T09:33:39.128Z,999.61
2023-01-20T09:34:39.258Z,999.63
2023-01-20T09:35:40.561Z,999.66
2023-01-20T09:36:39.305Z,999.66
2023-01-20T09:37:39.282Z,999.65
2023-01-20T09:38:39.014Z,999.66
2023-01-20T09:39:39.012Z,999.62
2023-01-20T09:40:40.342Z,999.62
2023-01-20T09:41:43.671Z,999.62
2023-01-20T09:42:38.979Z,999.64
2023-01-20T09:43:38.946Z,999.67
2023-01-20T09:44:38.951Z,999.64
2023-01-20T09:45:38.939Z,999.68
2023-01-20T09:46:38.932Z,999.68
2023-01-20T09:47:38.916Z,999.70
2023-01-20T09:48:38.931Z,999.70
2023-01-20T09:49:38.929Z,999.72
2023-01-20T09:50:38.878Z,999.73
2023-01-20T09:51:38.877Z,999.72
2023-01-20T09:52:38.848Z,999.73
2023-01-20T09:53:38.869Z,999.72
2023-01-20T09:54:38.834Z,999.74
2023-01-20T09:55:38.819Z,999.68
2023-01-20T09:56:38.815Z,999.72
2023-01-20T09:57:38.822Z,999.68
2023-01-20T09:58:38.807Z,999.70
2023-01-20T09:59:38.779Z,999.69
2023-01-20T10:00:38.793Z,999.70
2023-01-20T10:01:38.789Z,999.69
2023-01-20T10:02:38.748Z,999.75
2023-01-20T10:03:38.778Z,999.70
2023-01-20T10:04:38.738Z,999.77
2023-01-20T10:05:38.853Z,999.85
2023-01-20T10:06:38.709Z,999.81
2023-01-20T10:07:38.691Z,999.83
2023-01-20T10:08:38.685Z,999.82
2023-01-20T10:09:38.695Z,999.81
2023-01-20T10:10:38.676Z,999.78
2023-01-20T10:11:38.688Z,999.76
2023-01-20T10:12:38.638Z,999.74
2023-01-20T10:13:38.625Z,999.75
2023-01-20T10:14:38.610Z,999.72
2023-01-20T10:15:38.693Z,999.70
2023-01-20T10:16:38.615Z,999.66
2023-01-20T10:17:38.610Z,999.68
2023-01-20T10:18:38.571Z,999.64
2023-01-20T10:19:38.579Z,999.65
2023-01-20T10:20:38.572Z,999.61
2023-01-20T10:21:38.618Z,999.63
2023-01-20T10:22:38.528Z,999.70
2023-01-20T10:23:38.533Z,999.69
2023-01-20T10:24:38.509Z,999.70
2023-01-20T10:25:38.520Z,999.76
2023-01-20T10:26:38.485Z,999.76
2023-01-20T10:27:38.476Z,999.75
2023-01-20T10:28:38.461Z,999.74
2023-01-20T10:29:38.485Z,999.73
2023-01-20T10:30:38.513Z,999.69
2023-01-20T10:31:38.512Z,999.72
2023-01-20T10:32:38.424Z,999.74
2023-01-20T10:33:38.441Z,999.70
2023-01-20T10:34:38.410Z,999.68
2023-01-20T10:35:38.404Z,999.67
2023-01-20T10:36:38.397Z,999.65
2023-01-20T10:37:38.417Z,999.65
2023-01-20T10:38:38.363Z,999.64
2023-01-20T10:39:38.359Z,999.62
2023-01-20T10:40:38.377Z,999.67
2023-01-20T10:41:38.350Z,999.62
2023-01-20T10:42:38.335Z,999.60
2023-01-20T10:43:38.320Z,999.64
2023-01-20T10:44:38.295Z,999.59
2023-01-20T10:45:38.285Z,999.64
2023-01-20T10:46:38.339Z,999.62
2023-01-20T10:47:38.291Z,999.63
2023-01-20T10:48:38.248Z,999.62
2023-01-20T10:49:38.244Z,999.60
2023-01-20T10:50:38.265Z,999.64
2023-01-20T10:51:38.243Z,999.59
2023-01-20T10:52:38.227Z,999.58
2023-01-20T10:53:38.212Z,999.57
2023-01-20T10:54:38.197Z,999.57
2023-01-20T10:55:38.177Z,999.60
2023-01-20T10:56:38.178Z,999.56
2023-01-20T10:57:38.193Z,999.57
2023-01-20T10:58:38.154Z,999.59
2023-01-20T10:59:38.178Z,999.57
2023-01-20T11:00:38.150Z,999.56
2023-01-20T11:01:38.136Z,999.59
2023-01-20T11:02:38.316Z,999.61
2023-01-20T11:03:38.095Z,999.59
2023-01-20T11:04:38.101Z,999.59
2023-01-20T11:05:38.123Z,999.63
2023-01-20T11:06:38.084Z,999.60
2023-01-20T11:07:38.064Z,999.61
2023-01-20T11:08:38.036Z,999.61
2023-01-20T11:09:38.085Z,999.57
2023-01-20T11:10:38.029Z,999.64
2023-01-20T11:11:38.018Z,999.59
2023-01-20T11:12:38.029Z,999.61
2023-01-20T11:13:38.012Z,999.58
2023-01-20T11:14:37.996Z,999.58
2023-01-20T11:15:37.971Z,999.59
2023-01-20T11:16:38.039Z,999.60
2023-01-20T11:17:37.945Z,999.62
2023-01-20T11:18:37.957Z,999.64
2023-01-20T11:19:38.335Z,999.58
2023-01-20T11:20:37.927Z,999.60
2023-01-20T11:21:37.940Z,999.60
2023-01-20T11:22:37.913Z,999.64
2023-01-20T11:23:37.903Z,999.61
2023-01-20T11:24:37.865Z,999.65
2023-01-20T11:25:37.894Z,999.63
2023-01-20T11:26:37.848Z,999.65
2023-01-20T11:27:37.855Z,999.62
2023-01-20T11:28:37.853Z,999.64
2023-01-20T11:29:37.846Z,999.65
2023-01-20T11:30:37.857Z,999.68
2023-01-20T11:31:37.907Z,999.67
2023-01-20T11:32:37.790Z,999.66
2023-01-20T11:33:37.818Z,999.65
2023-01-20T11:34:37.784Z,999.71
2023-01-20T11:35:37.772Z,999.68
2023-01-20T11:36:37.747Z,999.69
2023-01-20T11:37:37.765Z,999.66
2023-01-20T11:38:37.728Z,999.64
2023-01-20T11:39:37.734Z,999.63
2023-01-20T11:40:37.705Z,999.59
2023-01-20T11:41:37.791Z,999.60
2023-01-20T11:42:37.701Z,999.57
2023-01-20T11:43:37.811Z,999.53
2023-01-20T11:44:37.681Z,999.54
2023-01-20T11:45:37.774Z,999.57
2023-01-20T11:46:37.702Z,999.55
2023-01-20T11:47:37.655Z,999.50
2023-01-20T11:48:37.655Z,999.53
2023-01-20T11:49:37.641Z,999.46
2023-01-20T11:50:37.593Z,999.49
2023-01-20T11:51:37.750Z,999.45
2023-01-20T11:52:37.614Z,999.45
2023-01-20T11:53:37.575Z,999.42
2023-01-20T11:54:37.631Z,999.44
2023-01-20T11:55:37.579Z,999.44
2023-01-20T11:56:37.540Z,999.44
2023-01-20T11:57:37.549Z,999.43
2023-01-20T11:58:37.517Z,999.46
2023-01-20T11:59:37.557Z,999.43
2023-01-20T12:00:37.546Z,999.45
2023-01-20T12:01:37.571Z,999.44
2023-01-20T12:02:37.493Z,999.46
2023-01-20T12:03:37.484Z,999.43
2023-01-20T12:04:37.493Z,999.45
2023-01-20T12:05:37.459Z,999.47
2023-01-20T12:06:37.490Z,999.42
2023-01-20T12:07:37.424Z,999.50
2023-01-20T12:08:37.409Z,999.45
2023-01-20T12:09:37.411Z,999.48
2023-01-20T12:10:37.400Z,999.45
2023-01-20T12:11:37.407Z,999.47
2023-01-20T12:12:37.389Z,999.45
2023-01-20T12:13:37.411Z,999.42
2023-01-20T12:14:37.353Z,999.44
2023-01-20T12:15:37.333Z,999.42
2023-01-20T12:16:37.392Z,999.44
2023-01-20T12:17:37.313Z,999.45
2023-01-20T12:18:37.402Z,999.49
2023-01-20T12:19:37.298Z,999.44
2023-01-20T12:20:53.154Z,999.44
2023-01-20T12:21:38.275Z,999.44
2023-01-20T12:22:37.314Z,999.41
2023-01-20T12:23:37.296Z,999.45
2023-01-20T12:24:42.951Z,999.50
2023-01-20T12:25:38.242Z,999.44
2023-01-20T12:26:37.228Z,999.48
2023-01-20T12:27:37.238Z,999.47
2023-01-20T12:28:37.214Z,999.42
2023-01-20T12:29:37.306Z,999.45